Time;durP1;ratioP1;P1;durP2;ratioP2;P2;SDS_P1;SDS_P2;PMS_P1;PMS_P2;Temp;Humidity;BMP_temperature;BMP_pressure;BME280_temperature;BME280_humidity;BME280_pressure;Samples;Min_cycle;Max_cycle;Signal;HPM_P1;HPM_P2
2021/10/21 00:02:06;;;;;;;;;;;;;;;;;;5063869;28;19908;-75
2021/10/21 00:04:32;;;;;;;;;;;;;;;;;;5068175;28;19944;-74
2021/10/21 00:06:57;;;;;;;;;;;;;;;;;;5065975;28;19912;-73
2021/10/21 00:09:22;;;;;;;;;;;;;;;;;;5064956;28;19913;-73
2021/10/21 00:11:47;;;;;;;;;;;;;;;;;;5063920;28;19901;-75
2021/10/21 00:14:13;;;;;;;;;;;;;;;;;;5065528;28;19897;-75
2021/10/21 00:16:38;;;;;;;;;;;;;;;;;;5063527;28;19912;-75
2021/10/21 00:19:03;;;;;;;;;;;;;;;;;;5066105;28;19916;-75
2021/10/21 00:21:28;;;;;;;;;;;;;;;;;;5065218;28;19933;-75
2021/10/21 00:23:54;;;;;;;;;;;;;;;;;;5067617;28;19932;-74
2021/10/21 00:26:19;;;;;;;;;;;;;;;;;;5062726;28;19901;-74
2021/10/21 00:28:44;;;;;;;;;;;;;;;;;;5072635;28;19897;-75
2021/10/21 00:31:09;;;;;;;;;;;;;;;;;;5063954;28;19935;-74
2021/10/21 00:33:34;;;;;;;;;;;;;;;;;;5062374;28;19901;-74
2021/10/21 00:36:00;;;;;;;;;;;;;;;;;;5066088;28;19901;-74
2021/10/21 00:38:25;;;;;;;;;;;;;;;;;;5066025;28;19912;-74
2021/10/21 00:40:50;;;;;;;;;;;;;;;;;;5065016;28;19908;-74
2021/10/21 00:43:15;;;;;;;;;;;;;;;;;;5061961;28;19901;-74
2021/10/21 00:45:41;;;;;;;;;;;;;;;;;;5066648;28;19905;-74
2021/10/21 00:48:06;;;;;;;;;;;;;;;;;;5065808;28;20064;-73
2021/10/21 00:50:31;;;;;;;;;;;;;;;;;;5066600;28;19976;-74
2021/10/21 00:52:57;;;;;;;;;;;;;;;;;;5066126;28;19901;-74
2021/10/21 00:55:22;;;;;;;;;;;;;;;;;;5063716;28;19924;-74
2021/10/21 00:57:47;;;;;;;;;;;;;;;;;;5062825;28;19912;-74
2021/10/21 01:00:12;;;;;;;;;;;;;;;;;;5067143;28;19952;-74
2021/10/21 01:02:38;;;;;;;;;;;;;;;;;;5067003;28;20091;-74
2021/10/21 01:05:03;;;;;;;;;;;;;;;;;;5072234;28;19935;-74
2021/10/21 01:07:28;;;;;;;;;;;;;;;;;;5066650;28;19901;-74
2021/10/21 01:09:53;;;;;;;;;;;;;;;;;;5066337;28;19897;-74
2021/10/21 01:12:19;;;;;;;;;;;;;;;;;;5074670;28;19956;-75
2021/10/21 01:14:45;;;;;;;;;;;;;;;;;;5066658;28;19901;-74
2021/10/21 01:17:10;;;;;;;;;;;;;;;;;;5074670;28;19900;-74
2021/10/21 01:19:36;;;;;;;;;;;;;;;;;;5065596;28;19940;-74
2021/10/21 01:22:02;;;;;;;;;;;;;;;;;;5065855;28;19901;-74
2021/10/21 01:24:27;;;;;;;;;;;;;;;;;;5065330;28;19999;-74
2021/10/21 01:26:52;;;;;;;;;;;;;;;;;;5066776;28;19920;-75
2021/10/21 01:29:18;;;;;;;;;;;;;;;;;;5062036;28;19955;-74
2021/10/21 01:31:43;;;;;;;;;;;;;;;;;;5062730;28;19963;-74
2021/10/21 01:34:08;;;;;;;;;;;;;;;;;;5073079;28;19972;-75
2021/10/21 01:36:33;;;;;;;;;;;;;;;;;;5063714;28;19901;-75
2021/10/21 01:38:58;;;;;;;;;;;;;;;;;;5070041;28;19917;-74
2021/10/21 01:41:24;;;;;;;;;;;;;;;;;;5064560;28;19901;-74
2021/10/21 01:43:49;;;;;;;;;;;;;;;;;;5072368;28;19901;-74
2021/10/21 01:46:14;;;;;;;;;;;;;;;;;;5065856;28;19901;-74
2021/10/21 01:48:39;;;;;;;;;;;;;;;;;;5064751;28;19901;-74
2021/10/21 01:51:05;;;;;;;;;;;;;;;;;;5071656;28;20125;-74
2021/10/21 01:53:30;;;;;;;;;;;;;;;;;;5063187;28;19905;-75
2021/10/21 01:55:55;;;;;;;;;;;;;;;;;;5063226;28;19901;-74
2021/10/21 01:58:20;;;;;;;;;;;;;;;;;;5062232;28;19935;-74
2021/10/21 02:00:45;;;;;;;;;;;;;;;;;;5066641;28;19905;-74
2021/10/21 02:03:11;;;;;;;;;;;;;;;;;;5062816;28;19941;-74
2021/10/21 02:05:36;;;;;;;;;;;;;;;;;;5062639;28;19908;-74
2021/10/21 02:08:01;;;;;;;;;;;;;;;;;;5066377;28;19940;-74
2021/10/21 02:10:27;;;;;;;;;;;;;;;;;;5064228;28;19909;-74
2021/10/21 02:12:52;;;;;;;;;;;;;;;;;;5085708;28;19909;-74
2021/10/21 02:15:17;;;;;;;;;;;;;;;;;;5070697;28;19936;-74
2021/10/21 02:17:42;;;;;;;;;;;;;;;;;;5069875;28;19917;-74
2021/10/21 02:20:08;;;;;;;;;;;;;;;;;;5066245;28;19901;-74
2021/10/21 02:22:33;;;;;;;;;;;;;;;;;;5060180;28;19901;-74
2021/10/21 02:24:58;;;;;;;;;;;;;;;;;;5065551;28;19901;-74
2021/10/21 02:27:23;;;;;;;;;;;;;;;;;;5064718;28;19901;-74
2021/10/21 02:29:49;;;;;;;;;;;;;;;;;;5055928;28;19901;-74
2021/10/21 02:32:14;;;;;;;;;;;;;;;;;;5070688;28;19905;-74
2021/10/21 02:34:39;;;;;;;;;;;;;;;;;;5072064;28;19901;-74
2021/10/21 02:37:04;;;;;;;;;;;;;;;;;;5071435;28;19909;-74
2021/10/21 02:39:29;;;;;;;;;;;;;;;;;;5062886;28;19901;-74
2021/10/21 02:41:55;;;;;;;;;;;;;;;;;;5071848;28;19908;-74
2021/10/21 02:44:20;;;;;;;;;;;;;;;;;;5059437;28;20017;-74
2021/10/21 02:46:45;;;;;;;;;;;;;;;;;;5066831;28;19911;-74
2021/10/21 02:49:10;;;;;;;;;;;;;;;;;;5064416;28;19897;-74
2021/10/21 02:51:35;;;;;;;;;;;;;;;;;;5062130;28;19928;-74
2021/10/21 02:54:01;;;;;;;;;;;;;;;;;;5064987;28;19927;-74
2021/10/21 02:56:26;;;;;;;;;;;;;;;;;;5071710;28;20186;-74
2021/10/21 02:58:51;;;;;;;;;;;;;;;;;;5060287;28;19935;-74
2021/10/21 03:01:16;;;;;;;;;;;;;;;;;;5062271;28;19905;-74
2021/10/21 03:03:42;;;;;;;;;;;;;;;;;;5068608;28;19947;-74
2021/10/21 03:06:07;;;;;;;;;;;;;;;;;;5061468;28;19909;-74
2021/10/21 03:08:32;;;;;;;;;;;;;;;;;;5059822;28;20148;-74
2021/10/21 03:10:57;;;;;;;;;;;;;;;;;;5060359;28;19905;-74
2021/10/21 03:13:22;;;;;;;;;;;;;;;;;;5069606;28;19936;-74
2021/10/21 03:15:48;;;;;;;;;;;;;;;;;;5060171;28;19930;-74
2021/10/21 03:18:13;;;;;;;;;;;;;;;;;;5064905;28;19913;-74
2021/10/21 03:20:38;;;;;;;;;;;;;;;;;;5062127;28;19905;-74
2021/10/21 03:23:03;;;;;;;;;;;;;;;;;;5062128;28;19901;-74
2021/10/21 03:25:29;;;;;;;;;;;;;;;;;;5069078;28;19940;-73
2021/10/21 03:27:54;;;;;;;;;;;;;;;;;;5062319;28;19912;-74
2021/10/21 03:30:19;;;;;;;;;;;;;;;;;;5061889;28;19916;-74
2021/10/21 03:32:45;;;;;;;;;;;;;;;;;;5063707;28;20010;-74
2021/10/21 03:35:10;;;;;;;;;;;;;;;;;;5062361;28;19909;-74
2021/10/21 03:37:35;;;;;;;;;;;;;;;;;;5065745;28;19905;-75
2021/10/21 03:40:00;;;;;;;;;;;;;;;;;;5063569;28;19923;-75
2021/10/21 03:42:26;;;;;;;;;;;;;;;;;;5063120;28;19908;-74
2021/10/21 03:44:54;;;;;;;;;;;;;;;;;;5060691;28;20099;-75
2021/10/21 03:47:19;;;;;;;;;;;;;;;;;;5060374;28;19902;-75
2021/10/21 03:49:44;;;;;;;;;;;;;;;;;;5071343;28;19901;-75
2021/10/21 03:52:09;;;;;;;;;;;;;;;;;;5070686;28;19912;-75
2021/10/21 03:54:34;;;;;;;;;;;;;;;;;;5066063;28;19901;-75
2021/10/21 03:57:00;;;;;;;;;;;;;;;;;;5076532;28;19905;-75
2021/10/21 03:59:25;;;;;;;;;;;;;;;;;;5068117;28;19924;-75
2021/10/21 04:01:53;;;;;;;;;;;;;;;;;;5065610;28;19964;-75
2021/10/21 04:04:18;;;;;;;;;;;;;;;;;;5062287;28;19905;-75
2021/10/21 04:06:44;;;;;;;;;;;;;;;;;;5067220;28;19927;-75
2021/10/21 04:09:09;;;;;;;;;;;;;;;;;;5072035;28;19931;-75
2021/10/21 04:11:34;;;;;;;;;;;;;;;;;;5069335;28;19909;-75
2021/10/21 04:14:00;;;;;;;;;;;;;;;;;;5069550;28;20012;-75
2021/10/21 04:16:25;;;;;;;;;;;;;;;;;;5064579;28;19905;-75
2021/10/21 04:18:51;;;;;;;;;;;;;;;;;;5067485;28;19909;-75
2021/10/21 04:21:16;;;;;;;;;;;;;;;;;;5074991;28;19900;-75
2021/10/21 04:23:41;;;;;;;;;;;;;;;;;;5073096;28;19961;-75
2021/10/21 04:26:06;;;;;;;;;;;;;;;;;;5069483;28;19901;-75
2021/10/21 04:28:31;;;;;;;;;;;;;;;;;;5065243;28;20036;-75
2021/10/21 04:30:57;;;;;;;;;;;;;;;;;;5067647;28;20146;-74
2021/10/21 04:33:22;;;;;;;;;;;;;;;;;;5065065;28;19901;-75
2021/10/21 04:35:47;;;;;;;;;;;;;;;;;;5064381;28;19901;-75
2021/10/21 04:38:12;;;;;;;;;;;;;;;;;;5065788;28;19923;-75
2021/10/21 04:40:38;;;;;;;;;;;;;;;;;;5068445;28;19937;-74
2021/10/21 04:43:03;;;;;;;;;;;;;;;;;;5068394;28;20117;-75
2021/10/21 04:45:28;;;;;;;;;;;;;;;;;;5063048;28;19909;-74
2021/10/21 04:47:56;;;;;;;;;;;;;;;;;;5065537;28;19916;-74
2021/10/21 04:50:21;;;;;;;;;;;;;;;;;;5064757;28;19901;-74
2021/10/21 04:52:47;;;;;;;;;;;;;;;;;;5063652;28;19986;-74
2021/10/21 04:55:12;;;;;;;;;;;;;;;;;;5069242;28;19897;-74
2021/10/21 04:57:37;;;;;;;;;;;;;;;;;;5072148;28;19905;-74
2021/10/21 05:00:02;;;;;;;;;;;;;;;;;;5066630;28;19913;-73
2021/10/21 05:02:28;;;;;;;;;;;;;;;;;;5064170;28;19905;-73
2021/10/21 05:04:53;;;;;;;;;;;;;;;;;;5064985;28;19913;-73
2021/10/21 05:07:18;;;;;;;;;;;;;;;;;;5061516;28;19939;-72
2021/10/21 05:09:43;;;;;;;;;;;;;;;;;;5068611;28;19902;-72
2021/10/21 05:12:09;;;;;;;;;;;;;;;;;;5064644;28;19916;-73
2021/10/21 05:14:34;;;;;;;;;;;;;;;;;;5062666;28;19908;-73
2021/10/21 05:16:59;;;;;;;;;;;;;;;;;;5065733;28;19905;-73
2021/10/21 05:19:24;;;;;;;;;;;;;;;;;;5065883;28;19900;-73
2021/10/21 05:21:49;;;;;;;;;;;;;;;;;;5072504;28;19901;-73
2021/10/21 05:24:15;;;;;;;;;;;;;;;;;;5061977;28;19901;-73
2021/10/21 05:26:40;;;;;;;;;;;;;;;;;;5064312;28;19901;-73
2021/10/21 05:29:05;;;;;;;;;;;;;;;;;;5064452;28;19964;-73
2021/10/21 05:31:31;;;;;;;;;;;;;;;;;;5063055;28;19901;-73
2021/10/21 05:33:56;;;;;;;;;;;;;;;;;;5064814;28;20158;-73
2021/10/21 05:36:21;;;;;;;;;;;;;;;;;;5064760;28;19932;-72
2021/10/21 05:38:47;;;;;;;;;;;;;;;;;;5072876;28;19916;-72
2021/10/21 05:41:12;;;;;;;;;;;;;;;;;;5065098;28;19909;-72
2021/10/21 05:43:37;;;;;;;;;;;;;;;;;;5066052;28;19908;-73
2021/10/21 05:46:02;;;;;;;;;;;;;;;;;;5072570;28;19901;-74
2021/10/21 05:48:27;;;;;;;;;;;;;;;;;;5067299;28;19901;-74
2021/10/21 05:50:53;;;;;;;;;;;;;;;;;;5063674;28;19976;-74
2021/10/21 05:53:18;;;;;;;;;;;;;;;;;;5064125;28;19909;-72
2021/10/21 05:55:43;;;;;;;;;;;;;;;;;;5061956;28;19912;-72
2021/10/21 05:58:12;;;;;;;;;;;;;;;;;;5072724;28;20054;-72
2021/10/21 06:00:37;;;;;;;;;;;;;;;;;;5072169;28;19905;-72
2021/10/21 06:03:02;;;;;;;;;;;;;;;;;;5072506;28;19969;-75
2021/10/21 06:05:28;;;;;;;;;;;;;;;;;;5064535;28;19933;-74
2021/10/21 06:07:54;;;;;;;;;;;;;;;;;;5064832;28;19947;-73
2021/10/21 06:10:19;;;;;;;;;;;;;;;;;;5067763;28;19901;-73
2021/10/21 06:12:48;;;;;;;;;;;;;;;;;;5071237;28;19904;-75
2021/10/21 06:15:14;;;;;;;;;;;;;;;;;;5063981;28;19909;-72
2021/10/21 06:17:41;;;;;;;;;;;;;;;;;;5064383;28;19917;-72
2021/10/21 06:20:10;;;;;;;;;;;;;;;;;;5064219;28;19905;-72
2021/10/21 06:22:35;;;;;;;;;;;;;;;;;;5070445;28;19935;-73
2021/10/21 06:25:00;;;;;;;;;;;;;;;;;;5071170;28;19901;-74
2021/10/21 06:27:26;;;;;;;;;;;;;;;;;;5070495;28;19909;-73
2021/10/21 06:29:51;;;;;;;;;;;;;;;;;;5062171;28;19901;-72
2021/10/21 06:32:16;;;;;;;;;;;;;;;;;;5064821;28;19908;-72
2021/10/21 06:34:41;;;;;;;;;;;;;;;;;;5069758;28;19992;-71
2021/10/21 06:37:07;;;;;;;;;;;;;;;;;;5060304;28;19920;-73
2021/10/21 06:39:33;;;;;;;;;;;;;;;;;;5062181;28;19985;-73
2021/10/21 06:41:58;;;;;;;;;;;;;;;;;;5060763;28;19912;-72
2021/10/21 06:44:24;;;;;;;;;;;;;;;;;;5062507;28;20169;-71
2021/10/21 06:46:49;;;;;;;;;;;;;;;;;;5066122;28;19901;-72
2021/10/21 06:49:14;;;;;;;;;;;;;;;;;;5062993;28;19909;-72
2021/10/21 06:51:39;;;;;;;;;;;;;;;;;;5065720;28;19914;-73
2021/10/21 06:54:05;;;;;;;;;;;;;;;;;;5066537;28;20200;-71
2021/10/21 06:56:30;;;;;;;;;;;;;;;;;;5067983;28;19905;-73
2021/10/21 06:58:55;;;;;;;;;;;;;;;;;;5069303;28;19909;-72
2021/10/21 07:01:20;;;;;;;;;;;;;;;;;;5063583;28;19901;-72
2021/10/21 07:03:46;;;;;;;;;;;;;;;;;;5062341;28;19905;-71
2021/10/21 07:06:11;;;;;;;;;;;;;;;;;;5061753;28;19928;-73
2021/10/21 07:08:39;;;;;;;;;;;;;;;;;;5061342;28;19908;-73
2021/10/21 07:11:04;;;;;;;;;;;;;;;;;;5060029;28;20217;-72
2021/10/21 07:13:29;;;;;;;;;;;;;;;;;;5062118;28;19932;-72
2021/10/21 07:15:54;;;;;;;;;;;;;;;;;;5063352;28;19944;-72
2021/10/21 07:18:20;;;;;;;;;;;;;;;;;;5065803;28;19905;-73
2021/10/21 07:20:45;;;;;;;;;;;;;;;;;;5066689;28;19912;-73
2021/10/21 07:23:10;;;;;;;;;;;;;;;;;;5062014;28;19950;-73
2021/10/21 07:25:35;;;;;;;;;;;;;;;;;;5067776;28;19909;-73
2021/10/21 07:28:02;;;;;;;;;;;;;;;;;;5074463;28;20007;-73
2021/10/21 07:30:27;;;;;;;;;;;;;;;;;;5070066;28;19933;-72
2021/10/21 07:32:53;;;;;;;;;;;;;;;;;;5071875;28;19908;-72
2021/10/21 07:35:18;;;;;;;;;;;;;;;;;;5062989;28;19901;-73
2021/10/21 07:37:43;;;;;;;;;;;;;;;;;;5055360;28;19912;-73
2021/10/21 07:40:09;;;;;;;;;;;;;;;;;;5066949;28;19905;-74
2021/10/21 07:42:34;;;;;;;;;;;;;;;;;;5067277;28;19916;-74
2021/10/21 07:45:00;;;;;;;;;;;;;;;;;;5068047;28;19912;-73
2021/10/21 07:47:25;;;;;;;;;;;;;;;;;;5066921;28;19901;-74
2021/10/21 07:49:50;;;;;;;;;;;;;;;;;;5069684;28;20052;-74
2021/10/21 07:52:17;;;;;;;;;;;;;;;;;;5064123;28;19912;-76
2021/10/21 07:54:42;;;;;;;;;;;;;;;;;;5071028;28;19919;-75
2021/10/21 07:57:08;;;;;;;;;;;;;;;;;;5066983;28;19913;-77
2021/10/21 07:59:33;;;;;;;;;;;;;;;;;;5064817;28;19921;-77
2021/10/21 08:01:58;;;;;;;;;;;;;;;;;;5066385;28;19915;-76
2021/10/21 08:04:23;;;;;;;;;;;;;;;;;;5065721;28;19921;-77
2021/10/21 08:06:49;;;;;;;;;;;;;;;;;;5064810;28;19901;-76
2021/10/21 08:09:14;;;;;;;;;;;;;;;;;;5064411;28;20222;-76
2021/10/21 08:11:39;;;;;;;;;;;;;;;;;;5065927;28;19901;-76
2021/10/21 08:14:05;;;;;;;;;;;;;;;;;;5062840;28;19909;-75
2021/10/21 08:16:30;;;;;;;;;;;;;;;;;;5067233;28;19905;-75
2021/10/21 08:18:55;;;;;;;;;;;;;;;;;;5069594;28;19920;-75
2021/10/21 08:21:20;;;;;;;;;;;;;;;;;;5065727;28;19909;-75
2021/10/21 08:23:48;;;;;;;;;;;;;;;;;;5071499;28;19905;-76
2021/10/21 08:26:13;;;;;;;;;;;;;;;;;;5063708;28;19940;-75
2021/10/21 08:28:38;;;;;;;;;;;;;;;;;;5066264;28;19928;-76
2021/10/21 08:31:03;;;;;;;;;;;;;;;;;;5064977;28;19927;-75
2021/10/21 08:33:28;;;;;;;;;;;;;;;;;;5069103;28;20044;-75
2021/10/21 08:35:54;;;;;;;;;;;;;;;;;;5063335;28;20147;-76
2021/10/21 08:38:19;;;;;;;;;;;;;;;;;;5065076;28;19912;-75
2021/10/21 08:40:44;;;;;;;;;;;;;;;;;;5064122;28;19920;-75
2021/10/21 08:43:10;;;;;;;;;;;;;;;;;;5062662;28;19940;-75
2021/10/21 08:45:35;;;;;;;;;;;;;;;;;;5062837;28;19905;-75
2021/10/21 08:48:01;;;;;;;;;;;;;;;;;;5065471;28;19909;-75
2021/10/21 08:50:27;;;;;;;;;;;;;;;;;;5066213;28;19905;-72
2021/10/21 08:52:52;;;;;;;;;;;;;;;;;;5063034;28;19915;-70
2021/10/21 08:55:17;;;;;;;;;;;;;;;;;;5067789;28;19912;-72
2021/10/21 08:57:43;;;;;;;;;;;;;;;;;;5066231;28;19927;-72
2021/10/21 09:00:08;;;;;;;;;;;;;;;;;;5073564;28;19935;-74
2021/10/21 09:02:44;;;;;;;;;;;;;;;;;;5069344;28;20003;-75
2021/10/21 09:05:27;;;;;;;;;;;;;;;;;;5063202;28;19916;-73
2021/10/21 09:07:59;;;;;;;;;;;;;;;;;;5072251;28;19924;-76
2021/10/21 09:10:24;;;;;;;;;;;;;;;;;;5072161;28;19920;-75
2021/10/21 09:12:49;;;;;;;;;;;;;;;;;;5066429;28;20122;-75
2021/10/21 09:15:16;;;;;;;;;;;;;;;;;;5065283;28;19909;-77
2021/10/21 09:17:41;;;;;;;;;;;;;;;;;;5065092;28;19928;-75
2021/10/21 09:20:06;;;;;;;;;;;;;;;;;;5068816;28;19909;-76
2021/10/21 09:22:32;;;;;;;;;;;;;;;;;;5065101;28;19901;-75
2021/10/21 09:24:57;;;;;;;;;;;;;;;;;;5063335;28;19909;-74
2021/10/21 09:27:24;;;;;;;;;;;;;;;;;;5063871;28;19966;-74
2021/10/21 09:29:50;;;;;;;;;;;;;;;;;;5070668;28;19927;-73
2021/10/21 09:32:16;;;;;;;;;;;;;;;;;;5063498;28;19905;-75
2021/10/21 09:34:41;;;;;;;;;;;;;;;;;;5064577;28;20045;-74
2021/10/21 09:37:06;;;;;;;;;;;;;;;;;;5064123;28;19916;-74
2021/10/21 09:39:31;;;;;;;;;;;;;;;;;;5066782;28;19936;-73
2021/10/21 09:41:57;;;;;;;;;;;;;;;;;;5065823;28;19900;-73
2021/10/21 09:44:22;;;;;;;;;;;;;;;;;;5068444;28;19958;-74
2021/10/21 09:46:47;;;;;;;;;;;;;;;;;;5065399;28;19933;-73
2021/10/21 09:49:12;;;;;;;;;;;;;;;;;;5068328;28;19911;-75
2021/10/21 09:51:38;;;;;;;;;;;;;;;;;;5051801;28;19916;-75
2021/10/21 09:54:03;;;;;;;;;;;;;;;;;;5063479;28;20251;-76
2021/10/21 09:56:28;;;;;;;;;;;;;;;;;;5062359;28;19905;-75
2021/10/21 09:58:54;;;;;;;;;;;;;;;;;;5063981;28;19936;-75
2021/10/21 10:01:20;;;;;;;;;;;;;;;;;;5069606;28;19939;-74
2021/10/21 10:03:45;;;;;;;;;;;;;;;;;;5064857;28;20000;-75
2021/10/21 10:06:11;;;;;;;;;;;;;;;;;;5067057;28;19902;-74
2021/10/21 10:08:36;;;;;;;;;;;;;;;;;;5065596;28;19955;-75
2021/10/21 10:11:01;;;;;;;;;;;;;;;;;;5069087;28;19962;-76
2021/10/21 10:13:27;;;;;;;;;;;;;;;;;;5061909;28;19962;-76
2021/10/21 10:15:53;;;;;;;;;;;;;;;;;;5070084;28;19912;-76
2021/10/21 10:18:18;;;;;;;;;;;;;;;;;;5062543;28;19911;-77
2021/10/21 10:20:43;;;;;;;;;;;;;;;;;;5060972;28;19924;-76
2021/10/21 10:23:09;;;;;;;;;;;;;;;;;;5052667;28;19901;-76
2021/10/21 10:25:34;;;;;;;;;;;;;;;;;;5063284;28;19917;-75
2021/10/21 10:27:59;;;;;;;;;;;;;;;;;;5062963;28;19912;-77
2021/10/21 10:30:24;;;;;;;;;;;;;;;;;;5071744;28;19901;-77
2021/10/21 10:32:50;;;;;;;;;;;;;;;;;;5061564;28;20146;-77
2021/10/21 10:35:15;;;;;;;;;;;;;;;;;;5061123;28;19912;-74
2021/10/21 10:37:41;;;;;;;;;;;;;;;;;;5068644;28;19905;-73
2021/10/21 10:40:07;;;;;;;;;;;;;;;;;;5063235;28;19931;-73
2021/10/21 10:42:32;;;;;;;;;;;;;;;;;;5059029;28;19977;-75
2021/10/21 10:44:58;;;;;;;;;;;;;;;;;;5062269;28;19901;-74
2021/10/21 10:47:23;;;;;;;;;;;;;;;;;;5070067;28;19909;-75
2021/10/21 10:49:50;;;;;;;;;;;;;;;;;;5063626;28;19936;-72
2021/10/21 10:52:15;;;;;;;;;;;;;;;;;;5061405;28;19909;-73
2021/10/21 10:54:40;;;;;;;;;;;;;;;;;;5065402;28;19932;-74
2021/10/21 10:57:06;;;;;;;;;;;;;;;;;;5060676;28;19913;-74
2021/10/21 10:59:31;;;;;;;;;;;;;;;;;;5054672;28;19904;-75
2021/10/21 11:01:56;;;;;;;;;;;;;;;;;;5066604;28;19932;-77
2021/10/21 11:04:21;;;;;;;;;;;;;;;;;;5072267;28;19916;-74
2021/10/21 11:06:47;;;;;;;;;;;;;;;;;;5063699;28;19950;-75
2021/10/21 11:09:12;;;;;;;;;;;;;;;;;;5064942;28;19901;-73
2021/10/21 11:11:37;;;;;;;;;;;;;;;;;;5068856;28;19901;-74
2021/10/21 11:14:02;;;;;;;;;;;;;;;;;;5062946;28;19897;-73
2021/10/21 11:16:28;;;;;;;;;;;;;;;;;;5067509;28;20222;-74
2021/10/21 11:18:53;;;;;;;;;;;;;;;;;;5069786;28;19905;-74
2021/10/21 11:21:18;;;;;;;;;;;;;;;;;;5070670;28;19901;-76
2021/10/21 11:23:44;;;;;;;;;;;;;;;;;;5053489;28;19945;-76
2021/10/21 11:26:10;;;;;;;;;;;;;;;;;;5065693;28;19969;-78
2021/10/21 11:28:35;;;;;;;;;;;;;;;;;;5072987;28;19901;-77
2021/10/21 11:31:00;;;;;;;;;;;;;;;;;;5064290;28;19908;-74
2021/10/21 11:33:26;;;;;;;;;;;;;;;;;;5065158;28;19901;-76
2021/10/21 11:35:52;;;;;;;;;;;;;;;;;;5067661;28;19916;-75
2021/10/21 11:38:17;;;;;;;;;;;;;;;;;;5065094;28;19920;-76
2021/10/21 11:40:42;;;;;;;;;;;;;;;;;;5065765;28;19912;-75
2021/10/21 11:43:07;;;;;;;;;;;;;;;;;;5065493;28;19972;-75
2021/10/21 11:45:33;;;;;;;;;;;;;;;;;;5065032;28;19908;-74
2021/10/21 11:47:58;;;;;;;;;;;;;;;;;;5061268;28;20167;-74
2021/10/21 11:50:23;;;;;;;;;;;;;;;;;;5058143;28;19998;-75
2021/10/21 11:52:48;;;;;;;;;;;;;;;;;;5063827;28;19909;-73
2021/10/21 11:55:14;;;;;;;;;;;;;;;;;;5062874;28;19913;-75
2021/10/21 11:57:39;;;;;;;;;;;;;;;;;;5050024;28;19908;-74
2021/10/21 12:00:04;;;;;;;;;;;;;;;;;;5057896;28;19925;-75
2021/10/21 12:02:32;;;;;;;;;;;;;;;;;;5062952;28;19958;-74
2021/10/21 12:04:57;;;;;;;;;;;;;;;;;;5065753;28;20054;-75
2021/10/21 12:07:23;;;;;;;;;;;;;;;;;;5066702;28;19969;-75
2021/10/21 12:09:48;;;;;;;;;;;;;;;;;;5066631;28;19916;-76
2021/10/21 12:12:15;;;;;;;;;;;;;;;;;;5066188;28;19901;-76
2021/10/21 12:14:40;;;;;;;;;;;;;;;;;;5072282;28;19970;-75
2021/10/21 12:17:05;;;;;;;;;;;;;;;;;;5067635;28;19905;-76
2021/10/21 12:19:31;;;;;;;;;;;;;;;;;;5064362;28;19917;-75
2021/10/21 12:21:56;;;;;;;;;;;;;;;;;;5072244;28;19972;-75
2021/10/21 12:24:22;;;;;;;;;;;;;;;;;;5071124;28;19928;-75
2021/10/21 12:26:47;;;;;;;;;;;;;;;;;;5063526;28;19931;-73
2021/10/21 12:29:12;;;;;;;;;;;;;;;;;;5066268;28;19900;-76
2021/10/21 12:31:38;;;;;;;;;;;;;;;;;;5062199;28;19962;-74
2021/10/21 12:34:03;;;;;;;;;;;;;;;;;;5061899;28;19912;-76
2021/10/21 12:36:28;;;;;;;;;;;;;;;;;;5062708;28;19980;-78
2021/10/21 12:38:53;;;;;;;;;;;;;;;;;;5069614;28;19944;-78
2021/10/21 12:41:19;;;;;;;;;;;;;;;;;;5064190;28;19969;-78
2021/10/21 12:43:44;;;;;;;;;;;;;;;;;;5063287;28;19920;-77
2021/10/21 12:46:09;;;;;;;;;;;;;;;;;;5064487;28;19912;-77
2021/10/21 12:48:35;;;;;;;;;;;;;;;;;;5067982;28;19908;-75
2021/10/21 12:51:00;;;;;;;;;;;;;;;;;;5062451;28;19920;-75
2021/10/21 12:53:25;;;;;;;;;;;;;;;;;;5061733;28;19904;-76
2021/10/21 12:55:51;;;;;;;;;;;;;;;;;;5063877;28;19987;-75
2021/10/21 12:58:16;;;;;;;;;;;;;;;;;;5064395;28;19905;-75
2021/10/21 13:00:47;;;;;;;;;;;;;;;;;;5067176;28;19973;-74
2021/10/21 13:03:19;;;;;;;;;;;;;;;;;;5062173;28;19909;-75
2021/10/21 13:05:44;;;;;;;;;;;;;;;;;;5073039;28;19900;-76
2021/10/21 13:08:10;;;;;;;;;;;;;;;;;;5065340;28;19916;-75
2021/10/21 13:10:35;;;;;;;;;;;;;;;;;;5061791;28;19912;-74
2021/10/21 13:13:00;;;;;;;;;;;;;;;;;;5064081;28;19909;-75
2021/10/21 13:15:25;;;;;;;;;;;;;;;;;;5063381;28;20188;-72
2021/10/21 13:17:51;;;;;;;;;;;;;;;;;;5065826;28;19905;-72
2021/10/21 13:20:17;;;;;;;;;;;;;;;;;;5062828;28;19964;-75
2021/10/21 13:22:42;;;;;;;;;;;;;;;;;;5065688;28;19909;-76
2021/10/21 13:25:10;;;;;;;;;;;;;;;;;;5071970;28;20139;-75
2021/10/21 13:27:36;;;;;;;;;;;;;;;;;;5096790;28;19901;-75
2021/10/21 13:30:01;;;;;;;;;;;;;;;;;;5072723;28;19919;-76
2021/10/21 13:32:26;;;;;;;;;;;;;;;;;;5066720;28;19901;-76
2021/10/21 13:34:52;;;;;;;;;;;;;;;;;;5075354;28;19985;-78
2021/10/21 13:37:17;;;;;;;;;;;;;;;;;;5072576;28;19977;-78
2021/10/21 13:39:43;;;;;;;;;;;;;;;;;;5073988;28;19913;-76
2021/10/21 13:42:08;;;;;;;;;;;;;;;;;;5074481;28;19909;-77
2021/10/21 13:44:33;;;;;;;;;;;;;;;;;;5067575;28;19929;-77
2021/10/21 13:46:59;;;;;;;;;;;;;;;;;;5063556;28;20160;-76
2021/10/21 13:49:24;;;;;;;;;;;;;;;;;;5066715;28;19909;-72
2021/10/21 13:51:49;;;;;;;;;;;;;;;;;;5071750;28;19901;-72
2021/10/21 13:54:14;;;;;;;;;;;;;;;;;;5063850;28;19909;-73
2021/10/21 13:56:40;;;;;;;;;;;;;;;;;;5071917;28;19984;-73
2021/10/21 13:59:05;;;;;;;;;;;;;;;;;;5063112;28;19932;-72
2021/10/21 14:01:33;;;;;;;;;;;;;;;;;;5067034;28;19901;-72
2021/10/21 14:03:58;;;;;;;;;;;;;;;;;;5061470;28;19905;-74
2021/10/21 14:06:23;;;;;;;;;;;;;;;;;;5063301;28;20021;-75
2021/10/21 14:08:50;;;;;;;;;;;;;;;;;;5061958;28;20305;-76
2021/10/21 14:11:16;;;;;;;;;;;;;;;;;;5062383;28;19976;-76
2021/10/21 14:13:41;;;;;;;;;;;;;;;;;;5061418;28;19976;-75
2021/10/21 14:16:06;;;;;;;;;;;;;;;;;;5064026;28;19905;-76
2021/10/21 14:18:32;;;;;;;;;;;;;;;;;;5063505;28;19951;-75
2021/10/21 14:20:57;;;;;;;;;;;;;;;;;;5062937;28;19967;-75
2021/10/21 14:23:22;;;;;;;;;;;;;;;;;;5065183;28;19909;-76
2021/10/21 14:25:48;;;;;;;;;;;;;;;;;;5062350;28;19924;-75
2021/10/21 14:28:13;;;;;;;;;;;;;;;;;;5061073;28;20008;-75
2021/10/21 14:30:38;;;;;;;;;;;;;;;;;;5066152;28;19908;-73
2021/10/21 14:33:03;;;;;;;;;;;;;;;;;;5068711;28;19911;-73
2021/10/21 14:35:29;;;;;;;;;;;;;;;;;;5062904;28;19912;-73
2021/10/21 14:37:54;;;;;;;;;;;;;;;;;;5071379;28;19998;-74
2021/10/21 14:40:20;;;;;;;;;;;;;;;;;;5063572;28;19956;-74
2021/10/21 14:42:45;;;;;;;;;;;;;;;;;;5065075;28;19928;-73
2021/10/21 14:45:10;;;;;;;;;;;;;;;;;;5062801;28;19908;-73
2021/10/21 14:47:35;;;;;;;;;;;;;;;;;;5064306;28;19901;-73
2021/10/21 14:50:03;;;;;;;;;;;;;;;;;;5055594;28;19987;-73
2021/10/21 14:52:28;;;;;;;;;;;;;;;;;;5058679;28;19923;-73
2021/10/21 14:54:53;;;;;;;;;;;;;;;;;;5062223;28;19944;-73
2021/10/21 14:57:19;;;;;;;;;;;;;;;;;;5062883;28;19913;-73
2021/10/21 14:59:44;;;;;;;;;;;;;;;;;;5054219;28;19904;-73
2021/10/21 15:02:09;;;;;;;;;;;;;;;;;;5071670;28;19900;-74
2021/10/21 15:04:36;;;;;;;;;;;;;;;;;;5063827;28;19921;-73
2021/10/21 15:23:02;;;;;;;;;;;;;;;;;;5065177;28;19913;-72
2021/10/21 15:25:27;;;;;;;;;;;;;;;;;;5061686;28;19928;-72
2021/10/21 15:27:52;;;;;;;;;;;;;;;;;;5063875;28;19901;-72
2021/10/21 15:30:18;;;;;;;;;;;;;;;;;;5060905;28;19962;-72
2021/10/21 15:32:44;;;;;;;;;;;;;;;;;;5063433;28;19923;-73
2021/10/21 15:35:10;;;;;;;;;;;;;;;;;;5065290;28;19912;-73
2021/10/21 15:37:37;;;;;;;;;;;;;;;;;;5065345;28;19905;-74
2021/10/21 15:40:02;;;;;;;;;;;;;;;;;;5059982;28;19964;-73
2021/10/21 15:42:28;;;;;;;;;;;;;;;;;;5070035;28;19931;-73
2021/10/21 15:47:23;;;;;;;;;;;;;;;;;;5074559;28;19905;-73
2021/10/21 16:13:50;;;;;;;;;;;;;;;;;;5063790;28;19958;-75
2021/10/21 16:16:15;;;;;;;;;;;;;;;;;;5071326;28;19909;-74
2021/10/21 16:18:40;;;;;;;;;;;;;;;;;;5063734;28;19916;-75
2021/10/21 16:21:07;;;;;;;;;;;;;;;;;;5062511;28;19913;-75
2021/10/21 16:23:35;;;;;;;;;;;;;;;;;;5069668;28;19972;-75
2021/10/21 16:28:45;;;;;;;;;;;;;;;;;;5064722;28;19901;-75
2021/10/21 16:31:10;;;;;;;;;;;;;;;;;;5066562;28;19920;-75
2021/10/21 16:33:35;;;;;;;;;;;;;;;;;;5065150;28;19909;-74
2021/10/21 16:36:03;;;;;;;;;;;;;;;;;;5062990;28;20241;-74
2021/10/21 16:38:28;;;;;;;;;;;;;;;;;;5066612;28;19909;-74
2021/10/21 16:40:53;;;;;;;;;;;;;;;;;;5062329;28;19905;-74
2021/10/21 16:43:19;;;;;;;;;;;;;;;;;;5062422;28;19909;-75
2021/10/21 16:45:45;;;;;;;;;;;;;;;;;;5064338;28;19908;-73
2021/10/21 16:48:11;;;;;;;;;;;;;;;;;;5064298;28;19905;-74
2021/10/21 16:50:36;;;;;;;;;;;;;;;;;;5066254;28;19909;-74
2021/10/21 16:53:01;;;;;;;;;;;;;;;;;;5062705;28;19905;-75
2021/10/21 16:55:26;;;;;;;;;;;;;;;;;;5064810;28;20036;-74
2021/10/21 16:57:52;;;;;;;;;;;;;;;;;;5061369;28;19948;-75
2021/10/21 17:00:17;;;;;;;;;;;;;;;;;;5070974;28;19986;-73
2021/10/21 17:02:42;;;;;;;;;;;;;;;;;;5063538;28;19968;-75
2021/10/21 17:05:09;;;;;;;;;;;;;;;;;;5064891;28;19936;-75
2021/10/21 17:07:35;;;;;;;;;;;;;;;;;;5070749;28;19920;-75
2021/10/21 17:10:02;;;;;;;;;;;;;;;;;;5063076;28;19901;-75
2021/10/21 17:12:28;;;;;;;;;;;;;;;;;;5062243;28;19908;-75
2021/10/21 17:14:53;;;;;;;;;;;;;;;;;;5062306;28;19901;-75
2021/10/21 17:17:18;;;;;;;;;;;;;;;;;;5070142;28;19920;-75
2021/10/21 17:19:45;;;;;;;;;;;;;;;;;;5055372;28;20008;-75